Time;durP1;ratioP1;P1;durP2;ratioP2;P2;SDS_P1;SDS_P2;PMS_P1;PMS_P2;Temp;Humidity;BMP_temperature;BMP_pressure;BME280_temperature;BME280_humidity;BME280_pressure;Samples;Min_cycle;Max_cycle;Signal;HPM_P1;HPM_P2
2022/01/19 00:01:03;;;;;;;;;14.33;14.33;;;;;9.41;56.81;102698.44;4961130;28;45555;-90
2022/01/19 00:03:28;;;;;;;;;16.33;14.33;;;;;10.08;56.97;102811.50;4959156;28;45601;-89
2022/01/19 00:05:54;;;;;;;;;15.67;15.67;;;;;9.76;57.15;102765.59;4976214;28;46375;-89
2022/01/19 00:08:21;;;;;;;;;14.00;14.00;;;;;9.91;57.00;102790.34;4979251;28;45464;-89
2022/01/19 00:10:49;;;;;;;;;18.00;13.00;;;;;10.13;56.94;102825.66;4961928;28;45738;-89
2022/01/19 00:13:15;;;;;;;;;11.33;10.00;;;;;10.13;57.22;102822.13;4962766;28;45433;-89
2022/01/19 00:15:40;;;;;;;;;23.33;16.00;;;;;9.79;56.89;102758.50;4961142;28;47020;-89
2022/01/19 00:18:06;;;;;;;;;23.00;19.00;;;;;9.94;57.23;102784.97;4947754;28;45403;-89
2022/01/19 00:20:33;;;;;;;;;21.33;18.00;;;;;9.40;57.18;102674.50;4978985;28;45574;-89
2022/01/19 00:23:00;;;;;;;;;22.00;17.33;;;;;9.62;57.07;102704.47;4961750;28;45374;-89
2022/01/19 00:25:25;;;;;;;;;14.00;14.00;;;;;9.67;57.16;102692.03;4958684;28;46420;-89
2022/01/19 00:27:52;;;;;;;;;14.67;14.00;;;;;10.09;57.00;102760.00;4946273;28;46175;-90
2022/01/19 00:30:18;;;;;;;;;16.67;16.67;;;;;10.11;57.26;102762.63;4961935;28;45822;-89
2022/01/19 00:32:44;;;;;;;;;16.00;15.00;;;;;10.08;56.90;102754.69;4979671;28;45473;-89
2022/01/19 00:35:11;;;;;;;;;19.33;17.67;;;;;9.70;57.12;102682.22;4978601;28;46643;-89
2022/01/19 00:37:37;;;;;;;;;18.67;14.67;;;;;10.06;57.27;102732.50;4979297;28;45420;-89
2022/01/19 00:40:04;;;;;;;;;18.00;16.67;;;;;10.06;56.79;102744.03;4960731;28;45554;-90
2022/01/19 00:42:30;;;;;;;;;15.67;14.33;;;;;9.59;56.98;102665.44;4960670;28;45481;-89
2022/01/19 00:44:55;;;;;;;;;21.67;18.00;;;;;9.84;56.73;102734.47;4961197;28;48352;-90
2022/01/19 00:47:20;;;;;;;;;18.00;15.67;;;;;9.85;56.62;102723.78;4961461;28;46109;-89
2022/01/19 00:49:46;;;;;;;;;19.33;18.00;;;;;9.47;56.89;102662.91;4960001;28;45398;-89
2022/01/19 00:52:12;;;;;;;;;16.33;16.33;;;;;10.05;56.82;102762.72;4957734;28;45718;-89
2022/01/19 00:54:39;;;;;;;;;16.00;13.00;;;;;10.02;57.05;102760.97;4955117;28;48373;-89
2022/01/19 00:57:05;;;;;;;;;22.00;15.67;;;;;9.61;56.89;102700.06;4980495;28;45337;-89
2022/01/19 00:59:31;;;;;;;;;20.67;16.00;;;;;9.43;56.99;102674.47;4960872;28;45536;-89
2022/01/19 01:01:56;;;;;;;;;14.67;13.67;;;;;9.71;57.09;102723.03;4978588;28;45531;-89
2022/01/19 01:04:22;;;;;;;;;16.67;16.00;;;;;9.99;57.04;102757.44;4977134;28;47180;-89
2022/01/19 01:06:48;;;;;;;;;23.67;16.00;;;;;9.67;56.69;102706.22;4978583;28;45531;-89
2022/01/19 01:09:13;;;;;;;;;22.00;18.00;;;;;9.80;57.42;102722.97;4961226;28;45446;-89
2022/01/19 01:11:47;;;;;;;;;21.00;19.00;;;;;9.68;57.00;102701.78;4961604;28;45680;-89
2022/01/19 01:16:58;;;;;;;;;17.67;17.33;;;;;9.23;56.98;102606.31;4978633;28;45436;-89
2022/01/19 01:19:23;;;;;;;;;19.00;15.33;;;;;9.77;56.79;102693.69;4970015;28;45639;-89
2022/01/19 01:21:49;;;;;;;;;15.67;14.67;;;;;9.55;56.82;102653.06;4961330;28;45516;-88
2022/01/19 01:24:14;;;;;;;;;21.33;17.67;;;;;9.66;56.71;102666.28;4957105;28;47012;-88
2022/01/19 01:26:39;;;;;;;;;14.67;12.00;;;;;9.39;56.82;102624.81;4941862;28;45424;-89
2022/01/19 01:29:05;;;;;;;;;18.33;16.67;;;;;9.64;56.82;102662.75;4959065;28;45342;-89
2022/01/19 01:31:30;;;;;;;;;19.33;16.00;;;;;9.92;57.05;102721.97;4955734;28;45453;-89
2022/01/19 01:33:55;;;;;;;;;16.33;13.33;;;;;9.13;56.92;102604.63;4941262;28;47441;-89
2022/01/19 01:36:21;;;;;;;;;15.33;14.33;;;;;9.26;57.23;102626.69;4969190;28;45168;-89
2022/01/19 01:38:46;;;;;;;;;21.67;16.67;;;;;9.77;57.14;102709.69;4961113;28;45355;-89
2022/01/19 01:41:14;;;;;;;;;14.67;14.67;;;;;9.88;57.22;102734.44;4961115;28;45325;-89
2022/01/19 01:43:44;;;;;;;;;18.00;16.00;;;;;9.66;57.01;102699.09;4959994;28;47329;-89
2022/01/19 01:46:19;;;;;;;;;20.00;16.67;;;;;9.85;57.34;102728.25;4960503;28;45364;-89
2022/01/19 01:48:46;;;;;;;;;17.33;16.00;;;;;9.32;57.10;102652.34;4977770;28;45311;-89
2022/01/19 01:53:58;;;;;;;;;18.00;15.00;;;;;9.54;57.35;102666.41;4978055;28;45500;-89
2022/01/19 01:56:23;;;;;;;;;23.00;19.67;;;;;9.58;56.93;102669.03;4977190;28;45416;-89
2022/01/19 01:58:49;;;;;;;;;18.67;17.33;;;;;9.46;56.55;102639.84;4976996;28;45479;-89
2022/01/19 02:01:16;;;;;;;;;15.33;15.33;;;;;9.41;56.84;102626.59;4960899;28;45513;-89
2022/01/19 02:03:43;;;;;;;;;22.33;19.33;;;;;9.55;56.48;102655.72;4952007;28;47196;-89
2022/01/19 02:08:47;;;;;;;;;19.33;18.00;;;;;9.54;56.57;102651.31;4957616;28;45484;-89
2022/01/19 02:22:03;;;;;;;;;21.00;19.33;;;;;9.46;56.69;102605.25;4936797;28;45508;-89
2022/01/19 02:24:39;;;;;;;;;20.00;16.67;;;;;9.52;56.85;102614.03;4920540;28;47438;-88
2022/01/19 02:27:13;;;;;;;;;17.33;15.33;;;;;9.82;57.12;102649.25;4935081;28;45469;-88
2022/01/19 02:40:47;;;;;;;;;19.67;16.67;;;;;9.28;56.90;102530.00;4936795;28;45363;-89
2022/01/19 02:43:20;;;;;;;;;13.67;12.67;;;;;9.42;56.47;102563.59;4936830;28;45509;-89
2022/01/19 02:51:14;;;;;;;;;16.33;16.33;;;;;9.59;57.00;102566.06;4935910;28;45766;-88
2022/01/19 02:53:39;;;;;;;;;17.67;17.67;;;;;9.77;56.84;102605.81;4972495;28;45534;-88
2022/01/19 02:56:10;;;;;;;;;22.00;17.67;;;;;9.78;56.76;102601.38;4977601;28;46478;-89
2022/01/19 02:58:42;;;;;;;;;19.00;18.00;;;;;9.52;56.84;102560.81;4959773;28;45426;-89
2022/01/19 03:09:19;;;;;;;;;19.00;18.33;;;;;9.50;56.84;102556.41;4957912;28;45244;-89
2022/01/19 03:11:44;;;;;;;;;23.00;20.00;;;;;9.28;57.10;102518.47;4940425;28;45579;-89
2022/01/19 03:14:10;;;;;;;;;19.33;16.67;;;;;9.61;57.19;102569.59;4964437;28;45230;-89
2022/01/19 03:16:36;;;;;;;;;20.00;16.67;;;;;9.60;56.60;102575.81;4959064;28;48421;-88
2022/01/19 03:19:02;;;;;;;;;19.33;16.33;;;;;9.42;56.92;102540.50;4977373;28;45929;-88
2022/01/19 03:21:27;;;;;;;;;23.00;21.33;;;;;9.30;57.04;102517.56;4958333;28;45486;-89
2022/01/19 03:23:52;;;;;;;;;21.00;18.33;;;;;9.22;56.77;102494.59;4959215;28;45469;-89
2022/01/19 03:26:18;;;;;;;;;22.00;20.33;;;;;9.21;56.59;102487.50;4959808;28;47199;-89
2022/01/19 03:28:43;;;;;;;;;18.33;18.33;;;;;9.19;56.33;102481.31;4959378;28;45439;-88
2022/01/19 03:31:08;;;;;;;;;18.67;17.33;;;;;9.70;56.47;102577.50;4976892;28;45764;-89
2022/01/19 03:33:34;;;;;;;;;22.33;17.33;;;;;9.70;56.31;102575.72;4959712;28;45311;-88
2022/01/19 03:36:00;;;;;;;;;19.67;19.33;;;;;9.44;56.17;102544.03;4976687;28;45459;-88
2022/01/19 03:38:25;;;;;;;;;14.67;14.67;;;;;9.65;56.54;102577.53;4978038;28;45433;-88
2022/01/19 03:40:51;;;;;;;;;22.67;21.00;;;;;9.14;56.79;102491.13;4979434;28;45346;-89
2022/01/19 03:43:16;;;;;;;;;24.00;21.33;;;;;9.22;56.71;102505.22;4961656;28;45391;-88
2022/01/19 03:45:50;;;;;;;;;17.33;17.00;;;;;9.13;56.53;102489.34;4978233;28;46655;-89
2022/01/19 03:50:53;;;;;;;;;20.33;15.67;;;;;9.41;56.80;102536.09;4978518;28;45532;-88
2022/01/19 03:53:19;;;;;;;;;21.00;21.00;;;;;9.19;56.77;102506.13;4962615;28;45391;-89
2022/01/19 03:55:44;;;;;;;;;19.33;18.00;;;;;9.01;56.70;102464.66;4979022;28;46447;-89
2022/01/19 03:58:10;;;;;;;;;13.00;13.00;;;;;9.03;57.02;102468.16;4961530;28;45610;-89
2022/01/19 04:00:41;;;;;;;;;21.00;16.67;;;;;9.42;57.14;102524.53;4979454;28;45474;-89
2022/01/19 04:03:07;;;;;;;;;21.67;18.67;;;;;8.75;57.17;102424.13;4980233;28;45414;-89
2022/01/19 04:08:30;;;;;;;;;19.00;17.33;;;;;9.29;56.90;102518.47;4900341;29;45562;-88
2022/01/19 04:10:56;;;;;;;;;17.00;17.00;;;;;9.31;56.88;102510.44;4900300;29;46025;-88
2022/01/19 04:15:53;;;;;;;;;14.33;13.33;;;;;9.20;57.17;102483.06;4900203;29;46175;-88
2022/01/19 04:18:18;;;;;;;;;22.33;21.00;;;;;8.87;56.92;102431.97;4899524;29;45554;-88
2022/01/19 04:20:48;;;;;;;;;23.00;21.00;;;;;9.13;57.36;102484.94;4900003;29;45412;-88
2022/01/19 04:23:14;;;;;;;;;19.00;16.67;;;;;9.12;57.26;102484.94;4900424;29;45455;-87
2022/01/19 04:25:39;;;;;;;;;20.00;17.00;;;;;8.93;57.57;102469.16;4900250;29;45464;-88
2022/01/19 04:28:07;;;;;;;;;20.33;18.00;;;;;8.81;57.80;102442.69;4900210;29;45445;-88
2022/01/19 04:30:34;;;;;;;;;19.33;18.00;;;;;9.44;57.12;102548.50;4900120;29;45457;-88
2022/01/19 04:33:05;;;;;;;;;19.00;19.00;;;;;9.29;57.03;102522.88;4900120;29;45576;-88
2022/01/19 04:35:43;;;;;;;;;23.67;20.00;;;;;9.45;57.68;102548.44;4883918;29;47201;-88
2022/01/19 04:54:48;;;;;;;;;26.00;19.67;;;;;9.21;58.21;102511.44;4979730;28;45346;-88
2022/01/19 05:05:33;;;;;;;;;26.33;22.33;;;;;8.97;58.35;102465.56;4978442;28;45538;-88
2022/01/19 05:08:16;;;;;;;;;28.00;23.00;;;;;9.16;58.52;102503.50;4960497;28;48137;-89
2022/01/19 05:13:33;;;;;;;;;22.33;21.67;;;;;9.39;58.60;102539.66;4978036;28;45730;-89
2022/01/19 05:15:59;;;;;;;;;25.00;21.00;;;;;9.32;58.60;102532.63;4978544;28;45669;-88
2022/01/19 05:18:24;;;;;;;;;25.67;21.33;;;;;8.82;58.65;102449.75;4977785;28;46163;-89
2022/01/19 05:20:50;;;;;;;;;24.33;21.33;;;;;8.92;58.64;102467.41;4961267;28;45341;-88
2022/01/19 05:23:16;;;;;;;;;26.00;23.33;;;;;9.00;58.59;102476.16;4978677;28;45377;-89
2022/01/19 05:25:43;;;;;;;;;21.00;20.00;;;;;9.16;58.45;102499.97;4977670;28;45525;-88
2022/01/19 05:28:08;;;;;;;;;23.00;22.00;;;;;9.39;58.93;102535.22;4960835;28;46505;-88
2022/01/19 05:30:33;;;;;;;;;26.67;24.33;;;;;9.02;58.44;102471.72;4960353;28;45429;-88
2022/01/19 05:32:59;;;;;;;;;20.00;19.00;;;;;9.37;58.85;102536.16;4977951;28;45426;-88
2022/01/19 05:35:24;;;;;;;;;25.67;22.67;;;;;9.46;58.85;102539.59;4961302;28;45416;-88
2022/01/19 05:37:50;;;;;;;;;25.33;23.00;;;;;9.46;58.85;102542.25;4960696;28;46045;-89
2022/01/19 05:40:16;;;;;;;;;29.33;27.00;;;;;9.00;59.10;102465.53;4977176;28;45401;-89
2022/01/19 05:42:42;;;;;;;;;23.33;19.00;;;;;9.44;58.98;102535.19;4960883;28;45493;-89
2022/01/19 05:45:08;;;;;;;;;24.67;23.33;;;;;9.02;59.13;102466.41;4978572;28;45445;-89
2022/01/19 05:47:34;;;;;;;;;26.00;24.00;;;;;9.39;58.97;102526.34;4960305;28;47243;-88
2022/01/19 05:49:59;;;;;;;;;27.33;25.67;;;;;8.98;59.21;102459.34;4977130;28;45328;-88
2022/01/19 05:52:24;;;;;;;;;23.00;22.33;;;;;9.16;59.12;102502.63;4960384;28;45485;-89
2022/01/19 05:54:50;;;;;;;;;28.67;25.00;;;;;8.93;59.02;102465.63;4977817;28;45713;-91
2022/01/19 05:57:16;;;;;;;;;25.33;23.33;;;;;9.08;59.03;102484.97;4977783;28;45329;-89
2022/01/19 05:59:41;;;;;;;;;28.75;26.25;;;;;8.47;58.91;102371.19;4977237;28;45373;-89
2022/01/19 06:02:07;;;;;;;;;33.25;30.75;;;;;8.63;59.07;102407.38;4964212;28;45461;-88
2022/01/19 06:04:32;;;;;;;;;27.25;22.25;;;;;8.80;59.65;102433.81;4977334;28;45516;-88
2022/01/19 06:06:58;;;;;;;;;31.33;30.33;;;;;9.03;59.26;102483.25;4977540;28;45789;-89
2022/01/19 06:09:35;;;;;;;;;29.25;27.25;;;;;9.34;59.19;102541.47;4959091;28;45418;-88
2022/01/19 06:12:07;;;;;;;;;33.25;30.50;;;;;9.32;59.19;102543.25;4977490;28;45546;-88
2022/01/19 06:14:34;;;;;;;;;30.00;29.00;;;;;9.28;59.63;102537.97;4977943;28;45431;-89
2022/01/19 06:17:00;;;;;;;;;33.25;31.25;;;;;9.25;59.77;102537.16;4977430;28;45529;-89
2022/01/19 06:19:26;;;;;;;;;38.00;32.25;;;;;8.92;59.99;102491.34;4959669;28;46080;-90
2022/01/19 06:21:52;;;;;;;;;36.00;31.00;;;;;9.24;60.10;102524.72;4958420;28;45682;-89
2022/01/19 06:24:18;;;;;;;;;35.00;31.25;;;;;8.64;59.85;102426.88;4977253;28;45404;-88
2022/01/19 06:26:43;;;;;;;;;39.75;33.00;;;;;8.34;59.86;102378.38;4959535;28;47363;-88
2022/01/19 06:29:08;;;;;;;;;34.75;28.75;;;;;8.66;59.75;102433.94;4978151;28;45408;-88
2022/01/19 06:31:34;;;;;;;;;33.75;31.50;;;;;9.05;60.27;102492.09;4969678;28;45540;-89
2022/01/19 06:33:59;;;;;;;;;37.25;29.75;;;;;9.20;60.14;102522.97;4941748;28;45481;-88
2022/01/19 06:36:25;;;;;;;;;28.50;28.25;;;;;8.90;59.96;102473.59;4973731;28;46126;-88
2022/01/19 06:38:50;;;;;;;;;42.00;36.75;;;;;8.59;60.15;102423.34;4958632;28;45440;-88
2022/01/19 06:41:16;;;;;;;;;40.50;34.00;;;;;8.80;60.24;102462.16;4976021;28;45435;-90
2022/01/19 06:43:41;;;;;;;;;30.25;30.25;;;;;8.67;60.50;102424.19;4960081;28;45294;-89
2022/01/19 06:46:06;;;;;;;;;38.25;32.75;;;;;8.64;60.51;102422.44;4977503;28;45457;-89
2022/01/19 06:48:32;;;;;;;;;29.75;24.25;;;;;9.25;60.47;102515.84;4959518;28;45354;-88
2022/01/19 06:50:57;;;;;;;;;38.00;32.00;;;;;8.82;60.29;102450.63;4960150;28;45248;-89
2022/01/19 06:53:23;;;;;;;;;31.25;28.25;;;;;9.23;60.43;102525.63;4977820;28;45685;-89
2022/01/19 06:55:48;;;;;;;;;35.25;31.50;;;;;8.54;60.12;102398.59;4973900;28;47149;-89
2022/01/19 06:58:14;;;;;;;;;33.25;31.25;;;;;8.88;60.24;102466.53;4973772;28;46002;-89
2022/01/19 07:00:40;;;;;;;;;34.25;32.75;;;;;8.38;60.45;102366.84;4977320;28;46049;-88
2022/01/19 07:03:05;;;;;;;;;35.25;30.50;;;;;9.28;60.25;102518.47;4978052;28;45353;-90
2022/01/19 07:05:31;;;;;;;;;35.25;30.50;;;;;8.59;60.16;102396.78;4959405;28;47927;-90
2022/01/19 07:07:57;;;;;;;;;36.50;32.50;;;;;8.84;60.33;102443.50;4976125;28;45638;-91
2022/01/19 07:10:24;;;;;;;;;35.50;32.25;;;;;9.24;60.51;102506.97;4976239;28;45362;-90
2022/01/19 07:12:50;;;;;;;;;35.00;30.50;;;;;9.36;60.05;102521.06;4976929;28;45430;-90
2022/01/19 07:15:16;;;;;;;;;36.00;31.00;;;;;9.10;60.30;102474.31;4962087;28;47113;-85
2022/01/19 07:17:41;;;;;;;;;41.75;34.00;;;;;8.99;60.42;102461.13;4979008;28;45622;-85
2022/01/19 07:20:07;;;;;;;;;36.75;32.50;;;;;8.51;60.14;102367.63;4985767;28;45323;-85
2022/01/19 07:22:32;;;;;;;;;32.75;29.50;;;;;8.72;60.10;102401.09;4999729;28;45503;-85
2022/01/19 07:24:59;;;;;;;;;31.25;30.25;;;;;9.42;60.36;102526.31;4966269;28;47452;-85
2022/01/19 07:27:24;;;;;;;;;33.50;30.00;;;;;8.96;59.96;102450.50;4978981;28;45378;-85
2022/01/19 07:29:50;;;;;;;;;33.50;30.00;;;;;9.39;60.05;102531.66;4962509;28;45391;-85
2022/01/19 07:32:15;;;;;;;;;34.25;32.00;;;;;9.22;60.59;102497.25;4962820;28;45338;-85
2022/01/19 07:34:41;;;;;;;;;36.00;32.50;;;;;9.25;60.15;102510.53;4962280;28;48271;-85
2022/01/19 07:37:06;;;;;;;;;35.00;30.50;;;;;8.72;60.26;102414.41;4962663;28;45572;-85
2022/01/19 07:39:32;;;;;;;;;36.50;31.75;;;;;9.46;60.24;102530.72;4980071;28;45300;-85
2022/01/19 07:41:57;;;;;;;;;38.50;33.00;;;;;8.94;60.35;102449.63;4980457;28;45539;-85
2022/01/19 07:44:23;;;;;;;;;38.25;31.25;;;;;9.46;60.42;102526.28;4962483;28;47112;-85
2022/01/19 07:46:50;;;;;;;;;35.25;32.00;;;;;9.08;60.29;102468.13;4977500;28;45381;-85
2022/01/19 07:49:17;;;;;;;;;35.25;31.00;;;;;9.28;60.33;102492.75;4960788;28;45349;-85
2022/01/19 07:51:43;;;;;;;;;32.50;31.00;;;;;9.05;60.16;102461.03;4960184;28;45504;-88
2022/01/19 07:54:08;;;;;;;;;28.25;28.25;;;;;9.39;60.23;102503.28;4966062;28;45862;-85
2022/01/19 07:56:34;;;;;;;;;30.67;27.67;;;;;9.34;60.43;102507.78;4961668;28;46177;-85
2022/01/19 07:58:59;;;;;;;;;33.00;30.00;;;;;9.33;60.31;102489.16;4978031;28;45385;-84
2022/01/19 08:01:27;;;;;;;;;34.50;30.75;;;;;9.19;60.27;102476.88;4982980;28;45590;-85
2022/01/19 08:03:53;;;;;;;;;35.25;31.50;;;;;9.20;60.31;102468.00;4976826;28;45963;-85
2022/01/19 08:06:18;;;;;;;;;38.50;30.25;;;;;9.17;60.12;102453.84;4960422;28;45564;-85
2022/01/19 08:08:43;;;;;;;;;34.75;30.75;;;;;9.54;60.03;102520.00;4980666;28;45676;-85
2022/01/19 08:11:08;;;;;;;;;37.25;30.50;;;;;9.16;60.22;102457.41;4958578;28;45433;-85
2022/01/19 08:13:34;;;;;;;;;37.00;33.25;;;;;9.61;60.11;102532.34;4977299;28;45327;-85
2022/01/19 08:15:59;;;;;;;;;35.67;26.67;;;;;8.88;60.11;102409.81;4978042;28;45417;-85
2022/01/19 08:18:25;;;;;;;;;28.33;27.00;;;;;9.54;60.46;102518.22;4977839;28;45491;-84
2022/01/19 08:20:50;;;;;;;;;31.75;29.50;;;;;9.23;60.24;102464.44;4977800;28;45672;-85
2022/01/19 08:23:15;;;;;;;;;35.00;28.25;;;;;8.95;60.26;102422.16;4977943;28;45537;-84
2022/01/19 08:25:41;;;;;;;;;35.25;31.50;;;;;9.29;60.45;102482.97;4977827;28;45389;-84
2022/01/19 08:28:06;;;;;;;;;29.75;26.25;;;;;8.71;60.42;102387.81;4974229;28;45353;-84
2022/01/19 08:30:32;;;;;;;;;30.75;28.00;;;;;9.41;60.68;102498.84;4975191;28;45677;-85
2022/01/19 08:32:57;;;;;;;;;35.50;30.75;;;;;9.68;60.61;102548.22;4977332;28;45380;-87
2022/01/19 08:35:23;;;;;;;;;33.25;30.25;;;;;9.24;60.53;102471.50;4977675;28;45564;-86
2022/01/19 08:37:48;;;;;;;;;36.00;32.25;;;;;8.88;60.33;102424.00;4957302;28;45363;-83
2022/01/19 08:40:14;;;;;;;;;40.00;33.75;;;;;9.42;60.38;102507.69;4976779;28;45445;-85
2022/01/19 08:42:39;;;;;;;;;31.33;29.33;;;;;9.34;60.52;102494.47;4976853;28;46450;-83
2022/01/19 08:45:07;;;;;;;;;33.00;30.00;;;;;9.74;60.52;102568.59;4976391;28;45520;-86
2022/01/19 08:47:37;;;;;;;;;35.00;31.25;;;;;9.07;60.21;102448.63;4976454;28;45408;-84
2022/01/19 08:50:09;;;;;;;;;38.00;32.50;;;;;9.74;60.17;102557.94;4975817;28;45485;-84
2022/01/19 08:52:35;;;;;;;;;33.00;30.50;;;;;9.68;60.38;102553.53;4972909;28;45858;-84
2022/01/19 08:55:00;;;;;;;;;32.75;29.25;;;;;9.02;60.59;102429.16;4964368;28;45866;-86
2022/01/19 08:57:26;;;;;;;;;40.50;33.00;;;;;9.56;60.27;102512.88;4960671;28;45581;-86
2022/01/19 08:59:51;;;;;;;;;38.25;33.75;;;;;8.97;60.75;102412.38;4976224;28;45440;-86
2022/01/19 09:02:17;;;;;;;;;38.25;32.75;;;;;9.36;60.02;102476.69;4959938;28;47286;-86
2022/01/19 09:04:42;;;;;;;;;38.00;32.50;;;;;9.63;60.35;102523.44;4976832;28;45412;-86
2022/01/19 09:07:08;;;;;;;;;41.00;34.50;;;;;9.73;60.31;102540.19;4976307;28;45598;-86
2022/01/19 09:09:33;;;;;;;;;42.75;34.50;;;;;9.60;60.25;102519.91;4977208;28;45480;-85
2022/01/19 09:11:59;;;;;;;;;41.50;36.75;;;;;9.95;60.49;102580.78;4959305;28;47625;-86
2022/01/19 09:14:24;;;;;;;;;40.00;34.00;;;;;9.46;60.54;102494.34;4959733;28;45722;-86
2022/01/19 09:16:55;;;;;;;;;40.75;32.75;;;;;9.49;60.08;102502.28;4976580;28;45529;-86
2022/01/19 09:19:21;;;;;;;;;36.75;31.00;;;;;9.69;60.33;102538.44;4958465;28;45734;-84
2022/01/19 09:21:47;;;;;;;;;38.50;33.75;;;;;9.56;60.10;102518.19;4958830;28;47847;-86
2022/01/19 09:24:13;;;;;;;;;37.00;31.00;;;;;9.60;60.15;102506.59;4976849;28;45452;-85
2022/01/19 09:26:38;;;;;;;;;36.75;30.75;;;;;10.03;60.13;102584.22;4959181;28;45535;-85
2022/01/19 09:29:04;;;;;;;;;34.50;30.75;;;;;10.04;60.08;102593.97;4977069;28;45507;-86
2022/01/19 09:31:30;;;;;;;;;37.50;34.00;;;;;9.46;59.79;102496.13;4959155;28;48124;-86
2022/01/19 09:34:07;;;;;;;;;37.25;31.25;;;;;9.55;60.55;102513.75;4975547;28;45465;-85
2022/01/19 09:36:35;;;;;;;;;35.00;31.00;;;;;10.07;60.21;102587.75;4958746;28;45396;-86
2022/01/19 09:39:02;;;;;;;;;30.50;27.00;;;;;10.09;59.86;102591.25;4959682;28;45481;-86
2022/01/19 09:41:29;;;;;;;;;38.00;33.50;;;;;9.46;60.12;102490.81;4958787;28;47320;-89
2022/01/19 09:43:54;;;;;;;;;37.75;30.75;;;;;9.50;59.95;102500.50;4959446;28;46295;-85
2022/01/19 09:46:20;;;;;;;;;39.75;33.50;;;;;10.10;59.78;102590.38;4976045;28;45524;-84
2022/01/19 09:48:45;;;;;;;;;37.50;32.50;;;;;10.05;60.00;102577.09;4976684;28;45602;-85
2022/01/19 09:51:14;;;;;;;;;26.00;25.50;;;;;9.74;59.92;102533.97;4959025;28;48463;-86
2022/01/19 09:53:41;;;;;;;;;36.00;30.00;;;;;10.13;59.63;102580.53;4959514;28;45777;-87
2022/01/19 09:56:07;;;;;;;;;33.25;31.00;;;;;10.17;59.93;102593.84;4976204;28;45649;-87
2022/01/19 09:58:33;;;;;;;;;36.50;32.00;;;;;9.30;59.71;102437.75;4959081;28;45338;-88
2022/01/19 10:00:58;;;;;;;;;40.25;33.75;;;;;10.07;60.02;102572.63;4974025;28;47348;-85
2022/01/19 10:03:25;;;;;;;;;46.00;36.00;;;;;10.18;59.61;102585.81;4972392;28;45644;-85
2022/01/19 10:05:56;;;;;;;;;43.75;33.50;;;;;10.18;59.51;102574.28;4972722;28;45695;-86
2022/01/19 10:08:28;;;;;;;;;39.50;33.00;;;;;9.57;59.80;102464.03;4973912;28;45658;-86
2022/01/19 10:11:25;;;;;;;;;36.75;30.75;;;;;10.19;59.31;102563.59;4973872;28;46172;-84
2022/01/19 10:17:08;;;;;;;;;39.25;33.50;;;;;10.20;59.40;102570.69;4973352;28;45475;-84
2022/01/19 10:19:42;;;;;;;;;45.50;33.50;;;;;10.06;59.32;102541.56;4958836;28;45634;-84
2022/01/19 10:22:22;;;;;;;;;34.25;32.00;;;;;10.22;59.18;102573.34;4975437;28;46655;-85
2022/01/19 10:24:50;;;;;;;;;47.00;37.25;;;;;10.15;59.49;102564.53;4972549;28;45528;-84
2022/01/19 10:27:40;;;;;;;;;56.25;44.75;;;;;10.18;59.83;102564.50;4973852;28;45824;-84
2022/01/19 10:30:06;;;;;;;;;43.00;33.50;;;;;10.26;59.44;102578.63;4974210;28;45675;-84
2022/01/19 10:32:34;;;;;;;;;35.75;32.75;;;;;10.25;59.28;102576.84;4975043;28;46024;-84
2022/01/19 10:35:19;;;;;;;;;42.00;34.75;;;;;10.06;59.61;102538.88;4955499;28;45402;-84
2022/01/19 10:37:47;;;;;;;;;42.75;33.75;;;;;10.30;59.44;102579.47;4970991;28;45447;-84
2022/01/19 10:40:19;;;;;;;;;43.25;35.00;;;;;10.31;59.20;102587.47;4974475;28;45539;-84
2022/01/19 10:42:45;;;;;;;;;37.00;34.00;;;;;9.97;59.54;102523.00;4972239;28;45548;-85
2022/01/19 10:45:12;;;;;;;;;38.25;33.25;;;;;9.86;59.24;102508.97;4973375;28;45342;-86
2022/01/19 10:47:56;;;;;;;;;36.25;33.25;;;;;9.97;59.01;102524.81;4974719;28;45397;-86
2022/01/19 10:50:28;;;;;;;;;45.75;36.50;;;;;10.32;59.20;102575.00;4976903;28;46729;-85
2022/01/19 10:52:54;;;;;;;;;37.50;34.00;;;;;10.24;59.00;102564.44;4976620;28;45712;-86
2022/01/19 10:55:19;;;;;;;;;43.25;36.25;;;;;10.27;59.79;102564.38;4977762;28;45421;-85
2022/01/19 10:57:47;;;;;;;;;45.25;35.50;;;;;9.98;59.97;102519.47;4976481;28;45396;-86
2022/01/19 11:00:17;;;;;;;;;48.00;37.00;;;;;10.29;59.69;102559.06;4976815;28;45460;-84
2022/01/19 11:02:44;;;;;;;;;51.25;39.50;;;;;10.09;59.39;102525.53;4977627;28;46609;-87
2022/01/19 11:05:10;;;;;;;;;44.50;38.25;;;;;9.84;59.47;102474.38;4979089;28;45507;-88
2022/01/19 11:07:37;;;;;;;;;48.50;39.00;;;;;9.48;59.64;102401.16;4907171;28;1670978;-87
2022/01/19 11:10:10;;;;;;;;;45.75;36.25;;;;;9.67;59.46;102423.13;4967232;28;45706;-85
2022/01/19 11:12:49;;;;;;;;;52.25;42.50;;;;;10.32;59.43;102535.94;4964544;28;47065;-84
2022/01/19 11:15:19;;;;;;;;;52.75;42.25;;;;;10.08;59.58;102490.91;4978004;28;45662;-85
2022/01/19 11:17:45;;;;;;;;;47.00;39.75;;;;;10.32;59.88;102545.69;4977954;28;45528;-85
2022/01/19 11:20:15;;;;;;;;;48.25;40.25;;;;;10.36;60.10;102544.75;4977622;28;45495;-85
2022/01/19 11:23:11;;;;;;;;;54.50;43.50;;;;;10.38;59.90;102532.28;4976318;28;45482;-86
2022/01/19 11:25:59;;;;;;;;;50.75;41.25;;;;;10.35;59.86;102537.69;4976868;28;45463;-83
2022/01/19 11:28:35;;;;;;;;;53.00;42.25;;;;;10.32;60.47;102527.94;4971863;28;45437;-83
2022/01/19 11:31:10;;;;;;;;;48.75;38.50;;;;;9.89;60.25;102458.31;4978184;28;45578;-84
2022/01/19 11:33:51;;;;;;;;;55.75;41.50;;;;;10.34;60.13;102530.56;4977704;28;46331;-84
2022/01/19 11:36:25;;;;;;;;;48.75;39.50;;;;;10.37;60.24;102530.50;4975156;28;45487;-84
2022/01/19 11:38:53;;;;;;;;;52.50;42.50;;;;;10.41;60.54;102526.91;4977592;28;45433;-85
2022/01/19 11:41:18;;;;;;;;;49.25;38.50;;;;;10.40;59.84;102526.94;4978177;28;45762;-86
2022/01/19 11:43:55;;;;;;;;;50.75;39.25;;;;;9.82;60.00;102425.56;4959762;28;48512;-85
2022/01/19 11:46:39;;;;;;;;;47.25;40.75;;;;;10.26;60.01;102484.47;4977840;28;45479;-84
2022/01/19 11:49:06;;;;;;;;;48.50;41.25;;;;;10.04;60.26;102438.56;4959994;28;45493;-84
2022/01/19 11:51:38;;;;;;;;;45.25;36.50;;;;;10.49;60.17;102500.16;4960220;28;45436;-84
2022/01/19 11:54:21;;;;;;;;;46.00;36.50;;;;;9.89;59.80;102402.41;4960514;28;47034;-84
2022/01/19 11:56:58;;;;;;;;;41.50;34.25;;;;;10.44;59.82;102492.22;4975294;28;45502;-83
2022/01/19 11:59:34;;;;;;;;;48.25;36.25;;;;;10.32;60.07;102469.31;4959287;28;45618;-85
2022/01/19 12:02:22;;;;;;;;;41.00;35.25;;;;;10.47;59.76;102496.63;4962230;28;45744;-83
2022/01/19 12:05:04;;;;;;;;;45.25;35.75;;;;;10.46;59.63;102489.53;4974094;28;45538;-83
2022/01/19 12:07:42;;;;;;;;;38.50;34.25;;;;;10.15;59.97;102426.88;4956705;28;45362;-86
2022/01/19 12:10:11;;;;;;;;;40.25;32.25;;;;;10.35;59.54;102452.38;4976676;28;45631;-85
2022/01/19 12:12:57;;;;;;;;;38.75;33.50;;;;;10.17;59.33;102424.19;4972224;28;45514;-85
2022/01/19 12:16:01;;;;;;;;;43.75;33.00;;;;;10.60;59.88;102491.97;4974457;28;45996;-89
2022/01/19 12:18:47;;;;;;;;;32.75;30.00;;;;;10.59;59.50;102477.78;4975737;28;45485;-87
2022/01/19 12:21:20;;;;;;;;;36.50;32.25;;;;;10.51;59.34;102461.00;4975229;28;45594;-88
2022/01/19 12:23:47;;;;;;;;;43.00;36.50;;;;;10.23;59.81;102408.13;4973035;28;45618;-89
2022/01/19 12:26:13;;;;;;;;;37.75;32.00;;;;;10.56;59.50;102461.84;4955007;28;47215;-86
2022/01/19 12:28:51;;;;;;;;;35.50;30.75;;;;;10.48;59.52;102445.94;4976219;28;45601;-92
2022/01/19 12:31:22;;;;;;;;;48.25;37.25;;;;;10.54;59.81;102453.84;4959988;28;45669;-91
2022/01/19 12:34:09;;;;;;;;;41.50;34.00;;;;;10.42;59.71;102423.81;4978140;28;45692;-90
2022/01/19 12:36:43;;;;;;;;;40.00;32.50;;;;;10.70;59.48;102462.47;4978262;28;47627;-90
2022/01/19 12:39:24;;;;;;;;;38.50;33.25;;;;;10.76;59.49;102461.50;4958532;28;45544;-89
2022/01/19 12:42:05;;;;;;;;;34.33;28.33;;;;;10.41;58.87;102401.63;4979439;28;45455;-84